sensor_id;sensor_type;location;lat;lon;timestamp;P1;durP1;ratioP1;P2;durP2;ratioP2
16828;SDS011;8531;48.078;11.968;2022-07-24T00:02:00;9.35;;;8.43;;
16828;SDS011;8531;48.078;11.968;2022-07-24T00:04:25;10.18;;;9.15;;
16828;SDS011;8531;48.078;11.968;2022-07-24T00:06:51;9.32;;;8.52;;
16828;SDS011;8531;48.078;11.968;2022-07-24T00:09:17;9.20;;;8.30;;
16828;SDS011;8531;48.078;11.968;2022-07-24T00:11:42;9.10;;;8.30;;
16828;SDS011;8531;48.078;11.968;2022-07-24T00:14:08;9.20;;;8.40;;
16828;SDS011;8531;48.078;11.968;2022-07-24T00:16:34;8.82;;;8.02;;
16828;SDS011;8531;48.078;11.968;2022-07-24T00:19:00;8.40;;;7.63;;
16828;SDS011;8531;48.078;11.968;2022-07-24T00:21:26;8.35;;;7.60;;
16828;SDS011;8531;48.078;11.968;2022-07-24T00:23:51;9.60;;;8.80;;
16828;SDS011;8531;48.078;11.968;2022-07-24T00:26:17;8.07;;;7.38;;
16828;SDS011;8531;48.078;11.968;2022-07-24T00:28:43;7.50;;;6.90;;
16828;SDS011;8531;48.078;11.968;2022-07-24T00:31:08;8.10;;;7.45;;
16828;SDS011;8531;48.078;11.968;2022-07-24T00:33:34;8.13;;;7.32;;
16828;SDS011;8531;48.078;11.968;2022-07-24T00:36:00;7.60;;;6.93;;
16828;SDS011;8531;48.078;11.968;2022-07-24T00:38:26;7.50;;;6.90;;
16828;SDS011;8531;48.078;11.968;2022-07-24T00:40:52;7.80;;;7.13;;
16828;SDS011;8531;48.078;11.968;2022-07-24T00:43:17;7.85;;;7.18;;
16828;SDS011;8531;48.078;11.968;2022-07-24T00:45:43;8.00;;;7.30;;
16828;SDS011;8531;48.078;11.968;2022-07-24T00:48:09;8.30;;;7.60;;
16828;SDS011;8531;48.078;11.968;2022-07-24T00:50:35;7.82;;;7.22;;
16828;SDS011;8531;48.078;11.968;2022-07-24T00:53:02;7.72;;;7.03;;
16828;SDS011;8531;48.078;11.968;2022-07-24T00:55:28;8.25;;;7.45;;
16828;SDS011;8531;48.078;11.968;2022-07-24T00:57:54;8.65;;;7.95;;
16828;SDS011;8531;48.078;11.968;2022-07-24T01:00:20;7.97;;;7.32;;
16828;SDS011;8531;48.078;11.968;2022-07-24T01:02:47;8.35;;;7.65;;
16828;SDS011;8531;48.078;11.968;2022-07-24T01:05:14;8.15;;;7.20;;
16828;SDS011;8531;48.078;11.968;2022-07-24T01:07:40;9.40;;;8.60;;
16828;SDS011;8531;48.078;11.968;2022-07-24T01:10:06;9.50;;;8.63;;
16828;SDS011;8531;48.078;11.968;2022-07-24T01:12:33;8.68;;;7.97;;
16828;SDS011;8531;48.078;11.968;2022-07-24T01:15:00;8.88;;;8.00;;
16828;SDS011;8531;48.078;11.968;2022-07-24T01:17:30;7.93;;;7.20;;
16828;SDS011;8531;48.078;11.968;2022-07-24T01:19:56;8.98;;;8.15;;
16828;SDS011;8531;48.078;11.968;2022-07-24T01:22:23;8.48;;;7.78;;
16828;SDS011;8531;48.078;11.968;2022-07-24T01:24:50;8.63;;;7.72;;
16828;SDS011;8531;48.078;11.968;2022-07-24T01:27:16;8.52;;;7.60;;
16828;SDS011;8531;48.078;11.968;2022-07-24T01:29:42;8.32;;;7.53;;
16828;SDS011;8531;48.078;11.968;2022-07-24T01:32:08;8.35;;;7.65;;
16828;SDS011;8531;48.078;11.968;2022-07-24T01:34:34;7.82;;;7.22;;
16828;SDS011;8531;48.078;11.968;2022-07-24T01:36:59;8.73;;;7.93;;
16828;SDS011;8531;48.078;11.968;2022-07-24T01:39:25;7.07;;;6.47;;
16828;SDS011;8531;48.078;11.968;2022-07-24T01:41:51;9.10;;;8.30;;
16828;SDS011;8531;48.078;11.968;2022-07-24T01:44:16;9.38;;;8.48;;
16828;SDS011;8531;48.078;11.968;2022-07-24T01:46:42;7.80;;;7.10;;
16828;SDS011;8531;48.078;11.968;2022-07-24T01:49:08;8.05;;;7.38;;
16828;SDS011;8531;48.078;11.968;2022-07-24T01:51:34;8.45;;;7.68;;
16828;SDS011;8531;48.078;11.968;2022-07-24T01:53:59;8.80;;;7.97;;
16828;SDS011;8531;48.078;11.968;2022-07-24T01:56:27;8.10;;;7.40;;
16828;SDS011;8531;48.078;11.968;2022-07-24T01:58:53;8.05;;;7.45;;
16828;SDS011;8531;48.078;11.968;2022-07-24T02:01:19;8.35;;;7.55;;
16828;SDS011;8531;48.078;11.968;2022-07-24T02:03:45;8.40;;;7.60;;
16828;SDS011;8531;48.078;11.968;2022-07-24T02:06:11;8.63;;;7.82;;
16828;SDS011;8531;48.078;11.968;2022-07-24T02:08:37;9.80;;;8.52;;
16828;SDS011;8531;48.078;11.968;2022-07-24T02:11:03;8.57;;;7.43;;
16828;SDS011;8531;48.078;11.968;2022-07-24T02:13:29;7.85;;;7.25;;
16828;SDS011;8531;48.078;11.968;2022-07-24T02:15:55;8.27;;;7.57;;
16828;SDS011;8531;48.078;11.968;2022-07-24T02:18:21;8.15;;;7.45;;
16828;SDS011;8531;48.078;11.968;2022-07-24T02:20:47;7.32;;;6.72;;
16828;SDS011;8531;48.078;11.968;2022-07-24T02:23:13;7.90;;;7.20;;
16828;SDS011;8531;48.078;11.968;2022-07-24T02:25:43;8.52;;;7.70;;
16828;SDS011;8531;48.078;11.968;2022-07-24T02:28:10;7.75;;;7.00;;
16828;SDS011;8531;48.078;11.968;2022-07-24T02:30:36;6.97;;;6.38;;
16828;SDS011;8531;48.078;11.968;2022-07-24T02:33:01;7.28;;;6.70;;
16828;SDS011;8531;48.078;11.968;2022-07-24T02:35:27;8.13;;;7.28;;
16828;SDS011;8531;48.078;11.968;2022-07-24T02:37:53;10.05;;;7.30;;
16828;SDS011;8531;48.078;11.968;2022-07-24T02:40:18;7.97;;;7.28;;
16828;SDS011;8531;48.078;11.968;2022-07-24T02:42:44;7.88;;;7.13;;
16828;SDS011;8531;48.078;11.968;2022-07-24T02:45:10;7.53;;;6.82;;
16828;SDS011;8531;48.078;11.968;2022-07-24T02:47:45;8.27;;;7.47;;
16828;SDS011;8531;48.078;11.968;2022-07-24T02:50:12;7.55;;;6.85;;
16828;SDS011;8531;48.078;11.968;2022-07-24T02:52:38;7.65;;;7.05;;
16828;SDS011;8531;48.078;11.968;2022-07-24T02:55:04;7.32;;;6.72;;
16828;SDS011;8531;48.078;11.968;2022-07-24T02:57:30;7.40;;;6.70;;
16828;SDS011;8531;48.078;11.968;2022-07-24T02:59:56;7.78;;;6.80;;
16828;SDS011;8531;48.078;11.968;2022-07-24T03:02:21;8.38;;;7.57;;
16828;SDS011;8531;48.078;11.968;2022-07-24T03:04:47;7.25;;;6.65;;
16828;SDS011;8531;48.078;11.968;2022-07-24T03:07:12;7.55;;;6.95;;
16828;SDS011;8531;48.078;11.968;2022-07-24T03:09:38;8.15;;;7.45;;
16828;SDS011;8531;48.078;11.968;2022-07-24T03:12:04;8.02;;;7.22;;
16828;SDS011;8531;48.078;11.968;2022-07-24T03:14:30;7.55;;;6.85;;
16828;SDS011;8531;48.078;11.968;2022-07-24T03:16:55;8.05;;;7.25;;
16828;SDS011;8531;48.078;11.968;2022-07-24T03:19:21;8.02;;;7.32;;
16828;SDS011;8531;48.078;11.968;2022-07-24T03:21:47;8.18;;;7.47;;
16828;SDS011;8531;48.078;11.968;2022-07-24T03:24:12;8.40;;;7.68;;
16828;SDS011;8531;48.078;11.968;2022-07-24T03:26:38;7.38;;;6.78;;
16828;SDS011;8531;48.078;11.968;2022-07-24T03:29:04;8.15;;;7.45;;
16828;SDS011;8531;48.078;11.968;2022-07-24T03:31:29;7.53;;;6.93;;
16828;SDS011;8531;48.078;11.968;2022-07-24T03:33:55;8.20;;;7.43;;
16828;SDS011;8531;48.078;11.968;2022-07-24T03:36:21;8.50;;;7.75;;
16828;SDS011;8531;48.078;11.968;2022-07-24T03:38:46;8.38;;;7.60;;
16828;SDS011;8531;48.078;11.968;2022-07-24T03:41:12;8.15;;;7.10;;
16828;SDS011;8531;48.078;11.968;2022-07-24T03:43:37;8.07;;;7.38;;
16828;SDS011;8531;48.078;11.968;2022-07-24T03:46:03;8.13;;;7.43;;
16828;SDS011;8531;48.078;11.968;2022-07-24T03:48:29;8.45;;;7.68;;
16828;SDS011;8531;48.078;11.968;2022-07-24T03:50:54;8.85;;;7.95;;
16828;SDS011;8531;48.078;11.968;2022-07-24T03:53:20;8.05;;;7.38;;
16828;SDS011;8531;48.078;11.968;2022-07-24T03:55:46;9.52;;;8.63;;
16828;SDS011;8531;48.078;11.968;2022-07-24T03:58:11;8.77;;;7.95;;
16828;SDS011;8531;48.078;11.968;2022-07-24T04:00:37;8.43;;;7.72;;
16828;SDS011;8531;48.078;11.968;2022-07-24T04:03:03;7.78;;;7.18;;
16828;SDS011;8531;48.078;11.968;2022-07-24T04:05:28;8.20;;;7.40;;
16828;SDS011;8531;48.078;11.968;2022-07-24T04:07:54;7.45;;;6.85;;
16828;SDS011;8531;48.078;11.968;2022-07-24T04:10:20;9.10;;;7.50;;
16828;SDS011;8531;48.078;11.968;2022-07-24T04:12:45;7.65;;;7.05;;
16828;SDS011;8531;48.078;11.968;2022-07-24T04:15:11;8.02;;;7.22;;
16828;SDS011;8531;48.078;11.968;2022-07-24T04:17:37;7.75;;;7.15;;
16828;SDS011;8531;48.078;11.968;2022-07-24T04:20:04;7.70;;;6.93;;
16828;SDS011;8531;48.078;11.968;2022-07-24T04:22:31;8.10;;;7.20;;
16828;SDS011;8531;48.078;11.968;2022-07-24T04:24:56;8.90;;;8.00;;
16828;SDS011;8531;48.078;11.968;2022-07-24T04:27:22;8.02;;;7.30;;
16828;SDS011;8531;48.078;11.968;2022-07-24T04:29:47;8.98;;;8.18;;
16828;SDS011;8531;48.078;11.968;2022-07-24T04:32:13;9.20;;;8.40;;
16828;SDS011;8531;48.078;11.968;2022-07-24T04:34:39;9.60;;;8.68;;
16828;SDS011;8531;48.078;11.968;2022-07-24T04:37:04;8.93;;;8.13;;
16828;SDS011;8531;48.078;11.968;2022-07-24T04:39:30;9.63;;;8.68;;
16828;SDS011;8531;48.078;11.968;2022-07-24T04:41:55;11.60;;;9.85;;
16828;SDS011;8531;48.078;11.968;2022-07-24T04:44:21;10.70;;;9.68;;
16828;SDS011;8531;48.078;11.968;2022-07-24T04:46:47;10.32;;;9.43;;
16828;SDS011;8531;48.078;11.968;2022-07-24T04:49:12;11.45;;;10.25;;
16828;SDS011;8531;48.078;11.968;2022-07-24T04:51:38;12.32;;;11.05;;
16828;SDS011;8531;48.078;11.968;2022-07-24T04:54:03;12.13;;;10.77;;
16828;SDS011;8531;48.078;11.968;2022-07-24T04:56:29;12.98;;;11.68;;
16828;SDS011;8531;48.078;11.968;2022-07-24T04:58:57;12.23;;;11.13;;
16828;SDS011;8531;48.078;11.968;2022-07-24T05:01:24;13.13;;;11.52;;
16828;SDS011;8531;48.078;11.968;2022-07-24T05:03:50;12.27;;;11.18;;
16828;SDS011;8531;48.078;11.968;2022-07-24T05:06:16;11.77;;;10.65;;
16828;SDS011;8531;48.078;11.968;2022-07-24T05:08:41;10.77;;;9.68;;
16828;SDS011;8531;48.078;11.968;2022-07-24T05:11:07;10.90;;;10.00;;
16828;SDS011;8531;48.078;11.968;2022-07-24T05:13:33;10.43;;;9.52;;
16828;SDS011;8531;48.078;11.968;2022-07-24T05:15:58;10.27;;;9.38;;
16828;SDS011;8531;48.078;11.968;2022-07-24T05:18:24;10.07;;;8.98;;
16828;SDS011;8531;48.078;11.968;2022-07-24T05:20:50;9.80;;;8.80;;
16828;SDS011;8531;48.078;11.968;2022-07-24T05:23:15;9.05;;;8.27;;
16828;SDS011;8531;48.078;11.968;2022-07-24T05:25:41;9.32;;;8.32;;
16828;SDS011;8531;48.078;11.968;2022-07-24T05:28:07;9.80;;;8.80;;
16828;SDS011;8531;48.078;11.968;2022-07-24T05:30:32;10.10;;;9.20;;
16828;SDS011;8531;48.078;11.968;2022-07-24T05:32:58;10.05;;;9.15;;
16828;SDS011;8531;48.078;11.968;2022-07-24T05:35:24;10.55;;;9.55;;
16828;SDS011;8531;48.078;11.968;2022-07-24T05:37:49;10.25;;;9.25;;
16828;SDS011;8531;48.078;11.968;2022-07-24T05:40:15;12.55;;;9.88;;
16828;SDS011;8531;48.078;11.968;2022-07-24T05:42:40;9.70;;;8.80;;
16828;SDS011;8531;48.078;11.968;2022-07-24T05:45:06;9.63;;;8.70;;
16828;SDS011;8531;48.078;11.968;2022-07-24T05:47:38;9.93;;;9.02;;
16828;SDS011;8531;48.078;11.968;2022-07-24T05:50:06;11.23;;;9.63;;
16828;SDS011;8531;48.078;11.968;2022-07-24T05:52:36;10.40;;;9.43;;
16828;SDS011;8531;48.078;11.968;2022-07-24T05:55:03;10.43;;;9.45;;
16828;SDS011;8531;48.078;11.968;2022-07-24T05:57:29;9.77;;;8.88;;
16828;SDS011;8531;48.078;11.968;2022-07-24T05:59:55;9.48;;;8.23;;
16828;SDS011;8531;48.078;11.968;2022-07-24T06:02:20;10.20;;;9.18;;
16828;SDS011;8531;48.078;11.968;2022-07-24T06:04:46;10.20;;;9.30;;
16828;SDS011;8531;48.078;11.968;2022-07-24T06:07:12;11.68;;;8.57;;
16828;SDS011;8531;48.078;11.968;2022-07-24T06:09:38;9.63;;;8.60;;
16828;SDS011;8531;48.078;11.968;2022-07-24T06:12:04;9.32;;;8.43;;
16828;SDS011;8531;48.078;11.968;2022-07-24T06:14:31;10.45;;;9.27;;
16828;SDS011;8531;48.078;11.968;2022-07-24T06:16:57;10.50;;;9.40;;
16828;SDS011;8531;48.078;11.968;2022-07-24T06:19:22;9.75;;;8.85;;
16828;SDS011;8531;48.078;11.968;2022-07-24T06:21:48;10.80;;;9.80;;
16828;SDS011;8531;48.078;11.968;2022-07-24T06:24:14;11.73;;;8.45;;
16828;SDS011;8531;48.078;11.968;2022-07-24T06:26:40;9.85;;;8.95;;
16828;SDS011;8531;48.078;11.968;2022-07-24T06:29:05;8.98;;;8.18;;
16828;SDS011;8531;48.078;11.968;2022-07-24T06:31:31;8.38;;;7.68;;
16828;SDS011;8531;48.078;11.968;2022-07-24T06:33:57;8.77;;;7.97;;
16828;SDS011;8531;48.078;11.968;2022-07-24T06:36:22;9.27;;;8.48;;
16828;SDS011;8531;48.078;11.968;2022-07-24T06:38:48;8.85;;;8.13;;
16828;SDS011;8531;48.078;11.968;2022-07-24T06:41:14;10.30;;;9.13;;
16828;SDS011;8531;48.078;11.968;2022-07-24T06:43:39;8.75;;;7.85;;
16828;SDS011;8531;48.078;11.968;2022-07-24T06:46:05;9.13;;;8.23;;
16828;SDS011;8531;48.078;11.968;2022-07-24T06:48:31;9.70;;;8.73;;
16828;SDS011;8531;48.078;11.968;2022-07-24T06:50:57;8.80;;;8.00;;
16828;SDS011;8531;48.078;11.968;2022-07-24T06:53:23;10.60;;;8.77;;
16828;SDS011;8531;48.078;11.968;2022-07-24T06:55:48;9.40;;;8.52;;
16828;SDS011;8531;48.078;11.968;2022-07-24T06:58:18;10.10;;;9.13;;
16828;SDS011;8531;48.078;11.968;2022-07-24T07:00:44;9.45;;;8.52;;
16828;SDS011;8531;48.078;11.968;2022-07-24T07:03:10;9.20;;;8.30;;
16828;SDS011;8531;48.078;11.968;2022-07-24T07:05:36;11.80;;;9.48;;
16828;SDS011;8531;48.078;11.968;2022-07-24T07:08:01;9.27;;;8.38;;
16828;SDS011;8531;48.078;11.968;2022-07-24T07:10:27;9.15;;;8.30;;
16828;SDS011;8531;48.078;11.968;2022-07-24T07:12:53;10.23;;;9.32;;
16828;SDS011;8531;48.078;11.968;2022-07-24T07:15:18;8.63;;;7.80;;
16828;SDS011;8531;48.078;11.968;2022-07-24T07:17:44;9.23;;;8.10;;
16828;SDS011;8531;48.078;11.968;2022-07-24T07:20:10;8.35;;;7.53;;
16828;SDS011;8531;48.078;11.968;2022-07-24T07:22:37;8.25;;;7.55;;
16828;SDS011;8531;48.078;11.968;2022-07-24T07:25:04;8.27;;;7.50;;
16828;SDS011;8531;48.078;11.968;2022-07-24T07:27:30;8.88;;;8.05;;
16828;SDS011;8531;48.078;11.968;2022-07-24T07:29:56;7.55;;;6.82;;
16828;SDS011;8531;48.078;11.968;2022-07-24T07:32:22;7.95;;;7.25;;
16828;SDS011;8531;48.078;11.968;2022-07-24T07:34:47;7.88;;;7.10;;
16828;SDS011;8531;48.078;11.968;2022-07-24T07:37:13;8.68;;;7.88;;
16828;SDS011;8531;48.078;11.968;2022-07-24T07:39:38;8.23;;;7.53;;
16828;SDS011;8531;48.078;11.968;2022-07-24T07:42:04;8.05;;;7.35;;
16828;SDS011;8531;48.078;11.968;2022-07-24T07:44:30;8.10;;;7.40;;
16828;SDS011;8531;48.078;11.968;2022-07-24T07:46:56;16.35;;;8.18;;
16828;SDS011;8531;48.078;11.968;2022-07-24T07:49:21;9.48;;;7.05;;
16828;SDS011;8531;48.078;11.968;2022-07-24T07:51:47;7.75;;;7.05;;
16828;SDS011;8531;48.078;11.968;2022-07-24T07:54:16;7.85;;;7.25;;
16828;SDS011;8531;48.078;11.968;2022-07-24T07:56:42;9.68;;;8.43;;
16828;SDS011;8531;48.078;11.968;2022-07-24T07:59:08;8.77;;;7.90;;
16828;SDS011;8531;48.078;11.968;2022-07-24T08:01:33;13.02;;;8.52;;
16828;SDS011;8531;48.078;11.968;2022-07-24T08:03:59;7.68;;;6.95;;
16828;SDS011;8531;48.078;11.968;2022-07-24T08:06:25;7.90;;;7.10;;
16828;SDS011;8531;48.078;11.968;2022-07-24T08:08:51;9.13;;;6.53;;
16828;SDS011;8531;48.078;11.968;2022-07-24T08:11:17;6.53;;;5.93;;
16828;SDS011;8531;48.078;11.968;2022-07-24T08:13:43;7.68;;;6.65;;
16828;SDS011;8531;48.078;11.968;2022-07-24T08:16:09;6.88;;;6.28;;
16828;SDS011;8531;48.078;11.968;2022-07-24T08:18:34;7.20;;;6.50;;
16828;SDS011;8531;48.078;11.968;2022-07-24T08:21:00;7.78;;;6.28;;
16828;SDS011;8531;48.078;11.968;2022-07-24T08:23:26;7.03;;;6.43;;
16828;SDS011;8531;48.078;11.968;2022-07-24T08:25:51;7.05;;;6.35;;
16828;SDS011;8531;48.078;11.968;2022-07-24T08:28:17;6.75;;;6.15;;
16828;SDS011;8531;48.078;11.968;2022-07-24T08:30:43;7.30;;;6.40;;
16828;SDS011;8531;48.078;11.968;2022-07-24T08:33:08;7.70;;;7.00;;
16828;SDS011;8531;48.078;11.968;2022-07-24T08:35:34;7.82;;;7.07;;
16828;SDS011;8531;48.078;11.968;2022-07-24T08:38:00;7.78;;;7.03;;
16828;SDS011;8531;48.078;11.968;2022-07-24T08:40:29;7.13;;;6.43;;
16828;SDS011;8531;48.078;11.968;2022-07-24T08:43:05;6.85;;;6.18;;
16828;SDS011;8531;48.078;11.968;2022-07-24T08:45:38;7.40;;;6.70;;
16828;SDS011;8531;48.078;11.968;2022-07-24T08:48:06;6.93;;;6.32;;
16828;SDS011;8531;48.078;11.968;2022-07-24T08:50:34;6.35;;;5.78;;
16828;SDS011;8531;48.078;11.968;2022-07-24T08:53:01;6.63;;;5.90;;
16828;SDS011;8531;48.078;11.968;2022-07-24T08:55:27;6.75;;;6.05;;
16828;SDS011;8531;48.078;11.968;2022-07-24T08:57:57;7.30;;;6.22;;
16828;SDS011;8531;48.078;11.968;2022-07-24T09:00:23;6.82;;;6.22;;
16828;SDS011;8531;48.078;11.968;2022-07-24T09:02:50;8.10;;;6.43;;
16828;SDS011;8531;48.078;11.968;2022-07-24T09:05:16;7.15;;;6.55;;
16828;SDS011;8531;48.078;11.968;2022-07-24T09:07:41;7.00;;;6.40;;
16828;SDS011;8531;48.078;11.968;2022-07-24T09:10:08;7.82;;;7.13;;
16828;SDS011;8531;48.078;11.968;2022-07-24T09:12:43;8.55;;;7.00;;
16828;SDS011;8531;48.078;11.968;2022-07-24T09:15:11;7.18;;;6.57;;
16828;SDS011;8531;48.078;11.968;2022-07-24T09:17:46;7.05;;;5.72;;
16828;SDS011;8531;48.078;11.968;2022-07-24T09:20:15;7.05;;;6.43;;
16828;SDS011;8531;48.078;11.968;2022-07-24T09:22:41;6.07;;;5.57;;
16828;SDS011;8531;48.078;11.968;2022-07-24T09:27:37;6.70;;;6.10;;
16828;SDS011;8531;48.078;11.968;2022-07-24T09:30:13;6.95;;;6.30;;
16828;SDS011;8531;48.078;11.968;2022-07-24T09:33:07;6.97;;;6.13;;
16828;SDS011;8531;48.078;11.968;2022-07-24T09:35:37;5.95;;;5.35;;
16828;SDS011;8531;48.078;11.968;2022-07-24T09:38:11;6.18;;;5.68;;
16828;SDS011;8531;48.078;11.968;2022-07-24T09:40:52;6.28;;;5.70;;
16828;SDS011;8531;48.078;11.968;2022-07-24T09:43:21;7.10;;;6.50;;
16828;SDS011;8531;48.078;11.968;2022-07-24T09:46:07;9.02;;;6.90;;
16828;SDS011;8531;48.078;11.968;2022-07-24T09:48:57;7.13;;;6.15;;
16828;SDS011;8531;48.078;11.968;2022-07-24T09:51:22;7.18;;;6.47;;
16828;SDS011;8531;48.078;11.968;2022-07-24T09:54:07;8.00;;;6.13;;
16828;SDS011;8531;48.078;11.968;2022-07-24T09:56:34;5.95;;;5.47;;
16828;SDS011;8531;48.078;11.968;2022-07-24T09:59:01;6.45;;;5.88;;
16828;SDS011;8531;48.078;11.968;2022-07-24T10:01:32;7.03;;;5.68;;
16828;SDS011;8531;48.078;11.968;2022-07-24T10:04:00;6.43;;;5.72;;
16828;SDS011;8531;48.078;11.968;2022-07-24T10:06:26;5.72;;;5.30;;
16828;SDS011;8531;48.078;11.968;2022-07-24T10:08:53;6.65;;;5.50;;
16828;SDS011;8531;48.078;11.968;2022-07-24T10:11:20;5.93;;;5.53;;
16828;SDS011;8531;48.078;11.968;2022-07-24T10:13:47;6.00;;;5.45;;
16828;SDS011;8531;48.078;11.968;2022-07-24T10:18:51;6.15;;;5.55;;
16828;SDS011;8531;48.078;11.968;2022-07-24T10:21:22;6.20;;;5.70;;
16828;SDS011;8531;48.078;11.968;2022-07-24T10:24:10;6.28;;;5.78;;
16828;SDS011;8531;48.078;11.968;2022-07-24T10:26:46;5.45;;;5.05;;
16828;SDS011;8531;48.078;11.968;2022-07-24T10:29:18;5.80;;;5.30;;
16828;SDS011;8531;48.078;11.968;2022-07-24T10:31:44;6.07;;;5.57;;
16828;SDS011;8531;48.078;11.968;2022-07-24T10:45:30;6.95;;;5.75;;
16828;SDS011;8531;48.078;11.968;2022-07-24T10:56:23;6.43;;;5.82;;
16828;SDS011;8531;48.078;11.968;2022-07-24T11:01:35;7.30;;;6.35;;
16828;SDS011;8531;48.078;11.968;2022-07-24T11:09:16;5.95;;;5.32;;
16828;SDS011;8531;48.078;11.968;2022-07-24T11:14:24;7.72;;;5.70;;
16828;SDS011;8531;48.078;11.968;2022-07-24T11:20:10;6.03;;;5.40;;
16828;SDS011;8531;48.078;11.968;2022-07-24T11:25:24;6.35;;;5.75;;
16828;SDS011;8531;48.078;11.968;2022-07-24T11:27:58;8.07;;;5.95;;
16828;SDS011;8531;48.078;11.968;2022-07-24T11:30:40;6.07;;;5.57;;
16828;SDS011;8531;48.078;11.968;2022-07-24T11:33:07;6.57;;;5.80;;
16828;SDS011;8531;48.078;11.968;2022-07-24T11:35:35;6.53;;;5.93;;
16828;SDS011;8531;48.078;11.968;2022-07-24T11:38:03;5.38;;;4.97;;
16828;SDS011;8531;48.078;11.968;2022-07-24T11:40:30;7.35;;;5.53;;
16828;SDS011;8531;48.078;11.968;2022-07-24T11:42:57;6.90;;;6.30;;
16828;SDS011;8531;48.078;11.968;2022-07-24T11:45:25;5.82;;;5.32;;
16828;SDS011;8531;48.078;11.968;2022-07-24T11:47:51;6.32;;;5.68;;
16828;SDS011;8531;48.078;11.968;2022-07-24T11:50:20;6.20;;;5.60;;
16828;SDS011;8531;48.078;11.968;2022-07-24T11:52:50;6.25;;;5.68;;
16828;SDS011;8531;48.078;11.968;2022-07-24T11:55:18;5.88;;;5.38;;
16828;SDS011;8531;48.078;11.968;2022-07-24T11:57:49;6.20;;;5.68;;
16828;SDS011;8531;48.078;11.968;2022-07-24T12:00:24;5.78;;;5.28;;
16828;SDS011;8531;48.078;11.968;2022-07-24T12:02:53;6.20;;;5.68;;
16828;SDS011;8531;48.078;11.968;2022-07-24T12:05:27;6.43;;;5.38;;
16828;SDS011;8531;48.078;11.968;2022-07-24T12:07:55;5.28;;;4.88;;
16828;SDS011;8531;48.078;11.968;2022-07-24T12:10:21;5.57;;;5.15;;
16828;SDS011;8531;48.078;11.968;2022-07-24T12:12:49;7.07;;;5.57;;
16828;SDS011;8531;48.078;11.968;2022-07-24T12:15:16;4.97;;;4.60;;
16828;SDS011;8531;48.078;11.968;2022-07-24T12:18:02;6.63;;;5.25;;
16828;SDS011;8531;48.078;11.968;2022-07-24T12:20:33;5.35;;;4.85;;
16828;SDS011;8531;48.078;11.968;2022-07-24T12:23:04;6.00;;;5.15;;
16828;SDS011;8531;48.078;11.968;2022-07-24T12:25:32;5.70;;;5.20;;
16828;SDS011;8531;48.078;11.968;2022-07-24T12:28:17;5.75;;;5.35;;
16828;SDS011;8531;48.078;11.968;2022-07-24T12:30:44;5.63;;;5.15;;
16828;SDS011;8531;48.078;11.968;2022-07-24T12:35:52;5.45;;;5.05;;
16828;SDS011;8531;48.078;11.968;2022-07-24T12:43:27;5.30;;;4.90;;
16828;SDS011;8531;48.078;11.968;2022-07-24T12:46:09;5.47;;;5.07;;
16828;SDS011;8531;48.078;11.968;2022-07-24T12:48:36;5.57;;;5.07;;
16828;SDS011;8531;48.078;11.968;2022-07-24T12:51:06;5.82;;;5.18;;
16828;SDS011;8531;48.078;11.968;2022-07-24T12:53:36;5.85;;;5.25;;
16828;SDS011;8531;48.078;11.968;2022-07-24T12:56:13;5.88;;;5.38;;
16828;SDS011;8531;48.078;11.968;2022-07-24T12:58:57;6.10;;;5.63;;
16828;SDS011;8531;48.078;11.968;2022-07-24T13:01:26;4.93;;;4.50;;
16828;SDS011;8531;48.078;11.968;2022-07-24T13:04:02;5.45;;;5.00;;
16828;SDS011;8531;48.078;11.968;2022-07-24T13:06:32;6.05;;;5.55;;
16828;SDS011;8531;48.078;11.968;2022-07-24T13:09:03;10.95;;;5.72;;
16828;SDS011;8531;48.078;11.968;2022-07-24T13:11:29;5.78;;;5.18;;
16828;SDS011;8531;48.078;11.968;2022-07-24T13:13:55;5.43;;;4.85;;
16828;SDS011;8531;48.078;11.968;2022-07-24T13:16:21;6.18;;;5.65;;
16828;SDS011;8531;48.078;11.968;2022-07-24T13:18:48;6.47;;;5.88;;
16828;SDS011;8531;48.078;11.968;2022-07-24T13:21:16;6.07;;;5.47;;
16828;SDS011;8531;48.078;11.968;2022-07-24T13:23:44;6.15;;;5.55;;
16828;SDS011;8531;48.078;11.968;2022-07-24T13:26:09;6.32;;;5.53;;
16828;SDS011;8531;48.078;11.968;2022-07-24T13:28:35;6.30;;;5.20;;
16828;SDS011;8531;48.078;11.968;2022-07-24T13:31:01;5.97;;;5.40;;
16828;SDS011;8531;48.078;11.968;2022-07-24T13:33:27;5.63;;;5.10;;
16828;SDS011;8531;48.078;11.968;2022-07-24T13:35:53;5.68;;;5.15;;
16828;SDS011;8531;48.078;11.968;2022-07-24T13:38:18;6.10;;;5.32;;
16828;SDS011;8531;48.078;11.968;2022-07-24T13:40:44;5.60;;;5.10;;
16828;SDS011;8531;48.078;11.968;2022-07-24T13:43:10;5.53;;;5.03;;
16828;SDS011;8531;48.078;11.968;2022-07-24T13:45:35;5.75;;;5.25;;
16828;SDS011;8531;48.078;11.968;2022-07-24T13:48:01;5.78;;;5.32;;
16828;SDS011;8531;48.078;11.968;2022-07-24T13:50:27;5.80;;;5.28;;
16828;SDS011;8531;48.078;11.968;2022-07-24T13:52:53;5.97;;;5.47;;
16828;SDS011;8531;48.078;11.968;2022-07-24T13:55:19;6.40;;;5.25;;
16828;SDS011;8531;48.078;11.968;2022-07-24T13:57:44;5.45;;;5.05;;
16828;SDS011;8531;48.078;11.968;2022-07-24T14:00:10;6.80;;;6.10;;
16828;SDS011;8531;48.078;11.968;2022-07-24T14:02:37;7.57;;;6.68;;
16828;SDS011;8531;48.078;11.968;2022-07-24T14:05:02;6.68;;;6.18;;
16828;SDS011;8531;48.078;11.968;2022-07-24T14:07:28;5.45;;;5.03;;
16828;SDS011;8531;48.078;11.968;2022-07-24T14:09:54;5.63;;;5.13;;
16828;SDS011;8531;48.078;11.968;2022-07-24T14:12:20;6.10;;;5.45;;
16828;SDS011;8531;48.078;11.968;2022-07-24T14:14:46;6.80;;;5.65;;
16828;SDS011;8531;48.078;11.968;2022-07-24T14:17:11;6.60;;;5.43;;
16828;SDS011;8531;48.078;11.968;2022-07-24T14:19:38;5.13;;;4.68;;
16828;SDS011;8531;48.078;11.968;2022-07-24T14:22:04;5.60;;;5.10;;
16828;SDS011;8531;48.078;11.968;2022-07-24T14:24:29;5.80;;;5.30;;
16828;SDS011;8531;48.078;11.968;2022-07-24T14:26:55;6.05;;;5.55;;
16828;SDS011;8531;48.078;11.968;2022-07-24T14:29:22;5.55;;;5.15;;
16828;SDS011;8531;48.078;11.968;2022-07-24T14:31:48;5.85;;;5.35;;
16828;SDS011;8531;48.078;11.968;2022-07-24T14:34:14;5.72;;;5.32;;
16828;SDS011;8531;48.078;11.968;2022-07-24T14:36:40;6.10;;;5.60;;
16828;SDS011;8531;48.078;11.968;2022-07-24T14:39:06;5.53;;;5.03;;
16828;SDS011;8531;48.078;11.968;2022-07-24T14:41:32;5.82;;;5.30;;
16828;SDS011;8531;48.078;11.968;2022-07-24T14:43:58;6.05;;;5.53;;
16828;SDS011;8531;48.078;11.968;2022-07-24T14:46:24;5.38;;;4.97;;
16828;SDS011;8531;48.078;11.968;2022-07-24T14:48:50;5.75;;;5.28;;
16828;SDS011;8531;48.078;11.968;2022-07-24T14:51:15;5.90;;;5.40;;
16828;SDS011;8531;48.078;11.968;2022-07-24T14:53:41;6.45;;;5.07;;
16828;SDS011;8531;48.078;11.968;2022-07-24T14:56:06;5.68;;;5.18;;
16828;SDS011;8531;48.078;11.968;2022-07-24T14:58:32;6.30;;;5.45;;
16828;SDS011;8531;48.078;11.968;2022-07-24T15:00:58;5.88;;;5.38;;
16828;SDS011;8531;48.078;11.968;2022-07-24T15:03:24;6.65;;;5.97;;
16828;SDS011;8531;48.078;11.968;2022-07-24T15:05:49;6.53;;;5.82;;
16828;SDS011;8531;48.078;11.968;2022-07-24T15:08:15;6.30;;;5.80;;
16828;SDS011;8531;48.078;11.968;2022-07-24T15:10:41;6.03;;;5.53;;
16828;SDS011;8531;48.078;11.968;2022-07-24T15:13:06;5.78;;;5.28;;
16828;SDS011;8531;48.078;11.968;2022-07-24T15:15:32;6.13;;;5.32;;
16828;SDS011;8531;48.078;11.968;2022-07-24T15:17:58;6.57;;;5.75;;
16828;SDS011;8531;48.078;11.968;2022-07-24T15:20:23;6.15;;;5.28;;
16828;SDS011;8531;48.078;11.968;2022-07-24T15:22:49;7.72;;;6.93;;
16828;SDS011;8531;48.078;11.968;2022-07-24T15:25:15;7.40;;;5.63;;
16828;SDS011;8531;48.078;11.968;2022-07-24T15:27:40;5.68;;;5.18;;
16828;SDS011;8531;48.078;11.968;2022-07-24T15:30:06;5.68;;;5.13;;
16828;SDS011;8531;48.078;11.968;2022-07-24T15:32:32;6.20;;;5.70;;
16828;SDS011;8531;48.078;11.968;2022-07-24T15:34:57;8.35;;;5.70;;